Time;durP1;ratioP1;P1;durP2;ratioP2;P2;SDS_P1;SDS_P2;PMS_P1;PMS_P2;Temp;Humidity;BMP_temperature;BMP_pressure;BME280_temperature;BME280_humidity;BME280_pressure;Samples;Min_cycle;Max_cycle;Signal;HPM_P1;HPM_P2
2022/07/21 00:01:44;;;;;;;1.70;1.60;;;33.40;49.20;;;;;;5144552;27;20543;-64
2022/07/21 00:04:16;;;;;;;1.23;1.20;;;33.40;49.20;;;;;;5139139;27;20463;-64
2022/07/21 00:06:48;;;;;;;1.83;1.73;;;33.50;48.10;;;;;;5128517;27;20513;-64
2022/07/21 00:09:21;;;;;;;2.00;1.90;;;33.40;47.30;;;;;;5137355;27;20454;-63
2022/07/21 00:11:52;;;;;;;1.30;1.20;;;33.40;45.40;;;;;;5143864;27;20473;-63
2022/07/21 00:14:25;;;;;;;1.17;1.17;;;33.40;44.10;;;;;;5134974;27;20546;-63
2022/07/21 00:16:55;;;;;;;1.00;1.00;;;33.40;45.80;;;;;;5123303;28;20447;-64
2022/07/21 00:19:26;;;;;;;1.17;1.17;;;33.20;45.40;;;;;;5126540;27;21254;-65
2022/07/21 00:21:57;;;;;;;1.10;1.10;;;33.20;47.40;;;;;;5130232;27;20474;-64
2022/07/21 00:24:28;;;;;;;1.20;1.20;;;33.20;48.10;;;;;;5132812;27;20467;-63
2022/07/21 00:26:59;;;;;;;1.30;1.20;;;33.10;49.90;;;;;;5135740;27;20482;-64
2022/07/21 00:29:31;;;;;;;1.60;1.50;;;33.00;49.70;;;;;;5138084;27;20530;-65
2022/07/21 00:32:04;;;;;;;1.60;1.50;;;33.00;51.40;;;;;;5129411;27;20455;-65
2022/07/21 00:34:34;;;;;;;2.20;2.00;;;32.80;50.90;;;;;;5140872;27;20470;-64
2022/07/21 00:37:05;;;;;;;19.67;17.20;;;32.80;54.20;;;;;;5141883;27;20467;-64
2022/07/21 00:39:36;;;;;;;2.50;2.30;;;32.80;55.80;;;;;;5140184;27;20798;-64
2022/07/21 00:42:07;;;;;;;2.80;2.60;;;32.90;57.10;;;;;;5127557;27;21105;-66
2022/07/21 00:44:40;;;;;;;1.63;1.53;;;32.90;55.30;;;;;;5135838;27;20801;-64
2022/07/21 00:47:12;;;;;;;1.50;1.27;;;32.80;56.60;;;;;;5139451;27;20487;-63
2022/07/21 00:49:44;;;;;;;1.70;1.60;;;32.80;54.90;;;;;;5139394;27;20462;-64
2022/07/21 00:52:15;;;;;;;1.57;1.47;;;32.90;54.00;;;;;;5135371;27;20458;-63
2022/07/21 00:54:46;;;;;;;1.57;1.47;;;32.70;54.40;;;;;;5141385;27;20463;-64
2022/07/21 00:57:18;;;;;;;1.80;1.70;;;32.70;53.90;;;;;;5143156;27;20478;-65
2022/07/21 00:59:50;;;;;;;1.13;1.10;;;32.60;55.30;;;;;;5137130;27;21761;-66
2022/07/21 01:02:22;;;;;;;1.27;1.17;;;32.60;52.10;;;;;;5130674;27;20483;-65
2022/07/21 01:04:53;;;;;;;1.03;1.00;;;32.60;51.10;;;;;;5138432;27;20476;-65
2022/07/21 01:07:24;;;;;;;1.80;1.70;;;32.60;52.00;;;;;;5126440;27;20495;-65
2022/07/21 01:09:56;;;;;;;1.50;1.40;;;32.50;51.90;;;;;;5145871;27;20560;-65
2022/07/21 01:12:27;;;;;;;1.00;1.00;;;32.50;51.80;;;;;;5150230;27;20466;-65
2022/07/21 01:15:03;;;;;;;1.63;1.53;;;32.50;51.40;;;;;;5149005;27;20454;-67
2022/07/21 01:17:35;;;;;;;1.00;1.00;;;32.40;52.10;;;;;;5158995;27;20882;-66
2022/07/21 01:20:08;;;;;;;1.27;1.17;;;32.40;51.50;;;;;;5151191;27;20509;-65
2022/07/21 01:22:42;;;;;;;1.63;1.43;;;32.30;51.10;;;;;;5144950;27;20452;-65
2022/07/21 01:25:13;;;;;;;1.10;1.00;;;32.20;50.40;;;;;;5128163;27;20476;-65
2022/07/21 01:27:44;;;;;;;0.93;0.93;;;32.00;51.90;;;;;;5135881;27;20501;-65
2022/07/21 01:30:16;;;;;;;1.30;1.03;;;32.00;52.20;;;;;;5142973;27;20569;-65
2022/07/21 01:32:47;;;;;;;0.90;0.90;;;31.90;53.10;;;;;;5142323;27;20468;-66
2022/07/21 01:35:18;;;;;;;0.90;0.90;;;31.80;52.00;;;;;;5142644;27;20534;-64
2022/07/21 01:37:50;;;;;;;1.20;1.10;;;31.80;50.90;;;;;;5128632;27;20461;-64
2022/07/21 01:43:09;;;;;;;0.63;0.63;;;31.70;50.60;;;;;;5140800;27;20458;-65
2022/07/21 01:45:42;;;;;;;0.77;0.77;;;31.60;51.10;;;;;;5130822;27;20504;-65
2022/07/21 01:48:13;;;;;;;0.73;0.73;;;31.50;50.20;;;;;;5124984;27;20562;-64
2022/07/21 01:50:46;;;;;;;0.57;0.57;;;31.40;50.40;;;;;;5141026;27;20475;-64
2022/07/21 01:53:18;;;;;;;0.63;0.60;;;31.30;49.40;;;;;;5138459;27;20491;-65
2022/07/21 01:55:49;;;;;;;0.50;0.50;;;31.30;49.40;;;;;;5140245;27;20481;-63
2022/07/21 01:58:20;;;;;;;0.70;0.70;;;31.20;49.00;;;;;;5143929;27;20950;-63
2022/07/21 02:00:50;;;;;;;0.80;0.73;;;31.10;48.20;;;;;;5144655;27;20455;-65
2022/07/21 02:03:21;;;;;;;0.60;0.60;;;31.10;48.90;;;;;;5128421;27;20496;-64
2022/07/21 02:05:52;;;;;;;1.23;0.60;;;31.10;50.50;;;;;;5125336;27;20521;-65
2022/07/21 02:08:24;;;;;;;0.73;0.73;;;31.00;50.50;;;;;;5127781;27;20880;-65
2022/07/21 02:10:55;;;;;;;0.70;0.70;;;30.90;51.50;;;;;;5148699;27;20803;-65
2022/07/21 02:13:49;;;;;;;0.70;0.70;;;30.80;52.80;;;;;;5135430;27;20471;-64
2022/07/21 02:16:20;;;;;;;0.87;0.83;;;30.70;52.10;;;;;;5125031;27;20467;-65
2022/07/21 02:18:51;;;;;;;0.97;0.97;;;30.50;52.60;;;;;;5138796;27;20443;-64
2022/07/21 02:21:23;;;;;;;0.93;0.93;;;30.40;53.30;;;;;;5140321;27;20471;-65
2022/07/21 02:23:55;;;;;;;0.97;0.97;;;30.40;54.40;;;;;;5140835;27;20452;-64
2022/07/21 02:26:26;;;;;;;0.87;0.80;;;30.20;56.60;;;;;;5131613;27;20978;-64
2022/07/21 02:28:57;;;;;;;0.80;0.63;;;30.10;56.90;;;;;;5140779;27;20554;-64
2022/07/21 02:31:28;;;;;;;0.83;0.83;;;30.10;57.90;;;;;;5138078;27;20465;-63
2022/07/21 02:33:59;;;;;;;1.00;1.00;;;30.10;58.10;;;;;;5152396;27;20453;-63
2022/07/21 02:36:30;;;;;;;0.90;0.70;;;30.10;57.00;;;;;;5158558;27;20580;-62
2022/07/21 02:39:02;;;;;;;0.77;0.70;;;30.00;57.30;;;;;;5143781;27;20471;-62
2022/07/21 02:41:33;;;;;;;1.03;1.00;;;29.90;58.50;;;;;;5152663;27;20456;-63
2022/07/21 02:44:04;;;;;;;1.23;1.00;;;29.80;59.40;;;;;;5154693;27;20470;-63
2022/07/21 02:46:35;;;;;;;1.13;1.03;;;29.60;60.20;;;;;;5143539;27;20571;-63
2022/07/21 02:49:06;;;;;;;1.47;1.10;;;29.50;61.90;;;;;;5165123;27;20475;-62
2022/07/21 02:51:37;;;;;;;1.27;0.80;;;29.40;63.50;;;;;;5155461;27;20479;-63
2022/07/21 02:54:09;;;;;;;0.70;0.70;;;29.30;65.10;;;;;;5142123;27;20757;-63
2022/07/21 02:56:40;;;;;;;1.33;1.23;;;29.20;66.30;;;;;;5150965;27;20470;-63
2022/07/21 02:59:11;;;;;;;2.33;0.80;;;29.10;67.40;;;;;;5144709;27;20459;-63
2022/07/21 03:01:41;;;;;;;0.70;0.70;;;29.00;67.60;;;;;;5141557;27;20456;-63
2022/07/21 03:04:13;;;;;;;0.80;0.80;;;28.90;67.30;;;;;;5138306;27;20490;-62
2022/07/21 03:06:43;;;;;;;0.83;0.83;;;28.70;67.90;;;;;;5143542;27;20492;-63
2022/07/21 03:09:16;;;;;;;1.00;1.00;;;28.70;69.60;;;;;;5155231;27;20495;-63
2022/07/21 03:11:47;;;;;;;1.37;1.00;;;28.50;70.50;;;;;;5158753;27;20471;-63
2022/07/21 03:14:17;;;;;;;1.30;1.20;;;28.40;71.70;;;;;;5137057;27;20459;-63
2022/07/21 03:16:48;;;;;;;1.10;1.00;;;28.40;71.70;;;;;;5145983;27;20463;-63
2022/07/21 03:19:19;;;;;;;1.07;1.00;;;28.30;71.50;;;;;;5141725;27;20565;-62
2022/07/21 03:21:50;;;;;;;1.00;1.00;;;28.20;72.00;;;;;;5135352;27;20474;-62
2022/07/21 03:24:22;;;;;;;1.20;1.00;;;28.10;71.40;;;;;;5141183;27;20560;-63
2022/07/21 03:26:53;;;;;;;1.00;1.00;;;28.00;71.30;;;;;;5135363;27;20461;-63
2022/07/21 03:29:24;;;;;;;1.30;1.13;;;27.90;71.60;;;;;;5127047;27;20488;-63
2022/07/21 03:31:54;;;;;;;0.90;0.90;;;27.80;70.40;;;;;;5139782;27;20457;-63
2022/07/21 03:34:25;;;;;;;1.07;0.97;;;27.90;70.70;;;;;;5155424;27;20824;-63
2022/07/21 03:36:56;;;;;;;0.90;0.90;;;27.90;69.60;;;;;;5147161;27;20460;-63
2022/07/21 03:39:28;;;;;;;1.10;1.10;;;27.90;69.80;;;;;;5145202;27;20524;-64
2022/07/21 03:41:59;;;;;;;1.27;1.17;;;27.90;70.00;;;;;;5148404;27;20561;-65
2022/07/21 03:44:30;;;;;;;1.27;1.17;;;27.80;70.80;;;;;;5144697;27;20463;-64
2022/07/21 03:47:02;;;;;;;0.80;0.80;;;27.70;72.30;;;;;;5150355;27;20481;-65
2022/07/21 03:49:33;;;;;;;2.30;2.10;;;27.50;72.80;;;;;;5146673;27;20483;-63
2022/07/21 03:52:04;;;;;;;1.60;1.50;;;27.20;73.80;;;;;;5152794;27;20502;-64
2022/07/21 03:54:37;;;;;;;1.67;1.57;;;27.10;76.60;;;;;;5140084;27;20506;-63
2022/07/21 03:57:08;;;;;;;1.77;1.67;;;26.90;77.40;;;;;;5150069;27;20861;-63
2022/07/21 03:59:38;;;;;;;1.43;1.03;;;26.70;76.70;;;;;;5150923;27;20450;-62
2022/07/21 04:02:09;;;;;;;1.30;1.20;;;26.60;76.00;;;;;;5129361;27;20551;-63
2022/07/21 04:04:40;;;;;;;1.63;1.53;;;26.50;77.20;;;;;;5135913;27;21262;-62
2022/07/21 04:07:11;;;;;;;2.80;1.30;;;26.50;76.20;;;;;;5143696;27;20920;-60
2022/07/21 04:09:43;;;;;;;1.20;1.10;;;26.40;76.50;;;;;;5134636;27;20491;-60
2022/07/21 04:12:14;;;;;;;1.67;1.50;;;26.50;78.10;;;;;;5143663;27;20464;-61
2022/07/21 04:14:45;;;;;;;1.27;1.20;;;26.40;80.00;;;;;;5134459;27;20447;-62
2022/07/21 04:17:16;;;;;;;1.50;1.20;;;26.20;80.30;;;;;;5143419;27;20489;-61
2022/07/21 04:19:47;;;;;;;1.23;1.13;;;26.10;80.60;;;;;;5142321;27;20475;-60
2022/07/21 04:22:23;;;;;;;1.10;1.00;;;26.00;81.10;;;;;;5145402;27;20480;-60
2022/07/21 04:24:55;;;;;;;1.00;1.00;;;25.90;82.00;;;;;;5146141;27;20462;-61
2022/07/21 04:27:26;;;;;;;1.30;1.20;;;25.70;82.30;;;;;;5141617;27;20457;-61
2022/07/21 04:29:57;;;;;;;2.13;1.20;;;25.60;83.00;;;;;;5137881;27;20505;-61
2022/07/21 04:32:28;;;;;;;1.20;1.10;;;25.60;83.90;;;;;;5150201;27;20473;-60
2022/07/21 04:34:59;;;;;;;1.37;1.10;;;25.60;84.30;;;;;;5139742;27;20459;-61
2022/07/21 04:37:30;;;;;;;1.27;1.17;;;25.50;84.50;;;;;;5126422;27;20459;-61
2022/07/21 04:40:04;;;;;;;1.33;1.23;;;25.50;86.80;;;;;;5124787;27;20489;-62
2022/07/21 04:42:36;;;;;;;1.17;1.07;;;25.30;88.00;;;;;;5122990;27;20454;-62
2022/07/21 04:45:09;;;;;;;1.00;1.00;;;25.20;90.10;;;;;;5121689;27;20539;-61
2022/07/21 04:47:47;;;;;;;1.17;1.10;;;25.10;90.10;;;;;;5121594;27;20461;-61
2022/07/21 04:50:20;;;;;;;1.40;1.30;;;25.00;90.40;;;;;;5121417;27;20488;-61
2022/07/21 04:52:51;;;;;;;1.00;0.90;;;25.00;90.80;;;;;;5122497;27;20451;-61
2022/07/21 04:55:24;;;;;;;1.23;1.00;;;24.90;91.00;;;;;;5126692;27;20497;-61
2022/07/21 04:57:57;;;;;;;1.10;1.00;;;24.80;90.50;;;;;;5127673;27;20579;-63
2022/07/21 05:00:29;;;;;;;1.30;1.20;;;24.70;91.20;;;;;;5125851;27;20461;-65
2022/07/21 05:03:03;;;;;;;1.00;1.00;;;24.70;91.40;;;;;;5122819;27;20515;-62
2022/07/21 05:05:38;;;;;;;1.30;1.20;;;24.60;92.20;;;;;;5129351;27;20458;-61
2022/07/21 05:08:14;;;;;;;1.13;1.07;;;24.50;93.00;;;;;;5128023;27;20452;-61
2022/07/21 05:10:46;;;;;;;2.80;1.20;;;24.40;93.00;;;;;;5143229;27;20488;-63
2022/07/21 05:13:29;;;;;;;1.43;1.20;;;24.30;92.90;;;;;;5140912;27;20471;-61
2022/07/21 05:16:06;;;;;;;0.97;0.93;;;24.20;93.20;;;;;;5128491;27;20459;-62
2022/07/21 05:18:37;;;;;;;1.83;1.73;;;24.20;92.80;;;;;;5137722;27;20556;-62
2022/07/21 05:21:11;;;;;;;1.87;1.50;;;24.10;92.70;;;;;;5135290;27;20460;-62
2022/07/21 05:23:59;;;;;;;1.90;1.80;;;24.10;92.80;;;;;;5138496;27;20828;-62
2022/07/21 05:26:34;;;;;;;1.77;1.20;;;24.10;93.30;;;;;;5141656;27;20467;-63
2022/07/21 05:29:06;;;;;;;1.93;1.43;;;24.00;93.80;;;;;;5159137;27;20604;-63
2022/07/21 05:31:37;;;;;;;1.20;1.10;;;24.00;94.20;;;;;;5156270;27;20887;-63
2022/07/21 05:34:08;;;;;;;1.03;0.90;;;24.00;94.40;;;;;;5140599;27;20555;-64
2022/07/21 05:36:41;;;;;;;1.03;0.93;;;23.90;94.90;;;;;;5163062;27;20432;-63
2022/07/21 05:39:18;;;;;;;1.27;1.17;;;23.70;95.20;;;;;;5163308;27;20458;-63
2022/07/21 05:41:50;;;;;;;0.70;0.70;;;23.60;96.10;;;;;;5160800;27;20587;-63
2022/07/21 05:44:24;;;;;;;1.30;1.20;;;23.60;96.40;;;;;;5137376;27;20516;-63
2022/07/21 05:46:57;;;;;;;1.33;1.20;;;23.60;96.90;;;;;;5142620;27;20445;-63
2022/07/21 05:49:35;;;;;;;1.30;1.20;;;23.50;97.70;;;;;;5141969;27;20516;-64
2022/07/21 05:52:06;;;;;;;1.40;1.20;;;23.40;98.30;;;;;;5146460;27;20471;-63
2022/07/21 05:54:46;;;;;;;1.63;1.53;;;23.50;98.60;;;;;;5137262;27;20525;-63
2022/07/21 05:57:30;;;;;;;0.83;0.83;;;23.40;98.80;;;;;;5122963;27;20445;-63
2022/07/21 06:00:25;;;;;;;1.37;1.00;;;23.40;99.50;;;;;;5124151;27;20456;-64
2022/07/21 06:02:56;;;;;;;1.33;1.23;;;23.30;99.70;;;;;;5121478;27;20477;-63
2022/07/21 06:05:27;;;;;;;1.13;1.03;;;23.20;99.90;;;;;;5121201;27;20530;-63
2022/07/21 06:08:04;;;;;;;1.30;1.20;;;23.10;99.90;;;;;;5129710;27;20901;-63
2022/07/21 06:10:37;;;;;;;1.20;1.10;;;23.00;99.90;;;;;;5124707;27;20477;-64
2022/07/21 06:13:10;;;;;;;1.30;1.20;;;23.00;99.90;;;;;;5128113;27;20459;-63
2022/07/21 06:15:40;;;;;;;1.23;1.10;;;22.80;99.90;;;;;;5125281;27;20584;-63
2022/07/21 06:18:11;;;;;;;1.30;1.00;;;22.80;99.90;;;;;;5125194;27;20458;-63
2022/07/21 06:20:42;;;;;;;2.00;1.10;;;22.80;99.90;;;;;;5121870;27;22040;-64
2022/07/21 06:23:13;;;;;;;1.20;1.13;;;22.60;99.90;;;;;;5122838;27;20467;-63
2022/07/21 06:25:44;;;;;;;1.90;1.63;;;22.60;99.90;;;;;;5130558;27;20482;-63
2022/07/21 06:28:17;;;;;;;2.03;1.27;;;22.60;99.90;;;;;;5126895;27;20505;-63
2022/07/21 06:30:48;;;;;;;1.37;0.97;;;22.50;99.90;;;;;;5127695;27;20503;-63
2022/07/21 06:33:21;;;;;;;1.73;1.57;;;22.40;99.90;;;;;;5148755;27;20560;-63
2022/07/21 06:35:52;;;;;;;1.70;1.03;;;22.40;99.90;;;;;;5150516;27;20459;-63
2022/07/21 06:38:24;;;;;;;2.73;1.30;;;22.30;99.90;;;;;;5143344;27;20457;-63
2022/07/21 06:40:55;;;;;;;1.40;1.30;;;22.30;99.90;;;;;;5138870;27;20479;-63
2022/07/21 06:43:29;;;;;;;1.23;1.13;;;22.20;99.90;;;;;;5133691;27;20467;-63
2022/07/21 06:46:03;;;;;;;1.50;1.40;;;22.10;99.90;;;;;;5132357;27;20465;-63
2022/07/21 06:48:35;;;;;;;2.07;1.70;;;22.10;99.90;;;;;;5146883;27;20455;-63
2022/07/21 06:51:07;;;;;;;1.23;1.13;;;22.00;99.90;;;;;;5145018;27;20622;-63
2022/07/21 06:53:42;;;;;;;2.03;1.63;;;22.00;99.90;;;;;;5145556;27;20460;-63
2022/07/21 06:56:18;;;;;;;2.13;1.57;;;21.90;99.90;;;;;;5141065;27;20465;-63
2022/07/21 06:58:53;;;;;;;1.83;1.40;;;21.90;99.90;;;;;;5138891;27;20456;-64
2022/07/21 07:01:27;;;;;;;1.80;1.30;;;21.90;99.90;;;;;;5142861;27;20464;-63
2022/07/21 07:04:01;;;;;;;1.33;1.23;;;21.80;99.90;;;;;;5147888;27;20476;-63
2022/07/21 07:06:32;;;;;;;1.57;1.47;;;21.70;99.90;;;;;;5127570;27;20470;-63
2022/07/21 07:09:05;;;;;;;2.43;1.70;;;21.70;99.90;;;;;;5140471;27;20477;-63
2022/07/21 07:11:39;;;;;;;1.50;1.40;;;21.60;99.90;;;;;;5161510;27;20492;-63
2022/07/21 07:14:33;;;;;;;1.47;1.30;;;21.60;99.90;;;;;;5140700;27;20445;-63
2022/07/21 07:17:08;;;;;;;2.10;1.70;;;21.50;99.90;;;;;;5141013;27;20463;-62
2022/07/21 07:19:42;;;;;;;1.40;1.30;;;21.40;99.90;;;;;;5147882;27;20456;-63
2022/07/21 07:22:16;;;;;;;1.60;1.50;;;21.40;99.90;;;;;;5130945;27;20468;-63
2022/07/21 07:24:47;;;;;;;1.70;1.60;;;21.30;99.90;;;;;;5128914;27;21065;-63
2022/07/21 07:27:22;;;;;;;1.63;1.53;;;21.20;99.90;;;;;;5132028;27;20461;-63
2022/07/21 07:30:04;;;;;;;1.70;1.60;;;21.10;99.90;;;;;;5136196;27;20474;-63
2022/07/21 07:32:39;;;;;;;2.50;1.80;;;21.10;99.90;;;;;;5124497;27;20453;-63
2022/07/21 07:35:12;;;;;;;1.77;1.60;;;21.00;99.90;;;;;;5124264;27;20456;-62
2022/07/21 07:37:44;;;;;;;1.80;1.70;;;21.00;99.90;;;;;;5127018;27;20465;-63
2022/07/21 07:40:18;;;;;;;4.93;1.60;;;21.00;99.90;;;;;;5127030;27;20423;-63
2022/07/21 07:42:49;;;;;;;2.50;1.60;;;20.90;99.90;;;;;;5126159;27;20481;-63
2022/07/21 07:45:22;;;;;;;2.30;1.67;;;20.90;99.90;;;;;;5126193;27;20449;-63
2022/07/21 07:47:53;;;;;;;2.27;2.07;;;20.80;99.90;;;;;;5127952;27;20484;-63
2022/07/21 07:50:23;;;;;;;1.63;1.53;;;20.80;99.90;;;;;;5122562;27;20460;-63
2022/07/21 07:52:54;;;;;;;2.63;2.17;;;20.70;99.90;;;;;;5122522;27;20973;-63
2022/07/21 07:55:25;;;;;;;2.13;2.03;;;20.70;99.90;;;;;;5123177;27;20503;-63
2022/07/21 07:57:57;;;;;;;2.10;1.77;;;20.80;99.90;;;;;;5125014;27;20461;-63
2022/07/21 08:00:29;;;;;;;2.30;2.10;;;20.70;99.90;;;;;;5126432;27;20471;-63
2022/07/21 08:03:20;;;;;;;2.60;1.73;;;20.60;99.90;;;;;;5128867;27;20463;-63
2022/07/21 08:05:51;;;;;;;1.80;1.40;;;20.50;99.90;;;;;;5124289;27;20624;-63
2022/07/21 08:08:22;;;;;;;2.13;1.40;;;20.50;99.90;;;;;;5139051;27;20470;-63
2022/07/21 08:10:53;;;;;;;1.53;1.43;;;20.40;99.90;;;;;;5134119;27;20928;-63
2022/07/21 08:13:23;;;;;;;1.70;1.60;;;20.40;99.90;;;;;;5135916;27;20943;-63
2022/07/21 08:15:56;;;;;;;1.90;1.80;;;20.30;99.90;;;;;;5136460;27;20488;-64
2022/07/21 08:18:27;;;;;;;2.10;1.90;;;20.30;99.90;;;;;;5140221;27;20554;-63
2022/07/21 08:20:59;;;;;;;2.60;2.20;;;20.30;99.90;;;;;;5141821;27;20531;-63
2022/07/21 08:23:30;;;;;;;2.93;2.20;;;20.20;99.90;;;;;;5130608;27;20462;-63
2022/07/21 08:26:01;;;;;;;2.43;2.23;;;20.10;99.90;;;;;;5129446;27;20817;-63
2022/07/21 08:28:31;;;;;;;2.00;1.80;;;20.10;99.90;;;;;;5138761;27;20465;-63
2022/07/21 08:31:04;;;;;;;2.03;1.93;;;20.00;99.90;;;;;;5130990;27;20489;-62
2022/07/21 08:33:35;;;;;;;2.23;1.70;;;20.00;99.90;;;;;;5135495;27;20454;-63
2022/07/21 08:36:07;;;;;;;3.63;2.03;;;20.00;99.90;;;;;;5135123;27;20471;-63
2022/07/21 08:38:38;;;;;;;2.87;2.10;;;20.00;99.90;;;;;;5141017;27;20434;-63
2022/07/21 08:41:08;;;;;;;2.90;1.93;;;20.00;99.90;;;;;;5129995;27;20485;-63
2022/07/21 08:43:40;;;;;;;4.70;2.10;;;20.00;99.90;;;;;;5138771;27;20435;-63
2022/07/21 08:46:12;;;;;;;2.70;2.07;;;19.90;99.90;;;;;;5141044;27;20462;-63
2022/07/21 08:48:44;;;;;;;2.20;2.00;;;19.90;99.90;;;;;;5129159;27;20759;-63
2022/07/21 08:51:15;;;;;;;2.37;2.17;;;19.90;99.90;;;;;;5142130;27;20493;-63
2022/07/21 08:53:46;;;;;;;3.83;1.80;;;19.90;99.90;;;;;;5137932;27;20460;-63
2022/07/21 08:56:18;;;;;;;2.17;1.70;;;19.80;99.90;;;;;;5122749;27;20468;-63
2022/07/21 08:58:49;;;;;;;2.40;1.83;;;19.70;99.90;;;;;;5156436;27;20492;-63
2022/07/21 09:01:23;;;;;;;2.00;1.80;;;19.70;99.90;;;;;;5133171;27;20459;-63
2022/07/21 09:03:55;;;;;;;3.70;2.37;;;19.70;99.90;;;;;;5129576;27;20597;-63
2022/07/21 09:06:26;;;;;;;3.10;2.23;;;19.60;99.90;;;;;;5128517;27;20473;-62
2022/07/21 09:09:01;;;;;;;2.33;1.80;;;19.50;99.90;;;;;;5138649;27;20463;-62
2022/07/21 09:11:35;;;;;;;1.83;1.60;;;19.50;99.90;;;;;;5128125;27;20452;-63
2022/07/21 09:14:10;;;;;;;5.03;2.60;;;19.60;99.90;;;;;;5137176;27;20495;-62
2022/07/21 09:16:44;;;;;;;3.37;2.03;;;19.50;99.90;;;;;;5136084;27;20436;-63
2022/07/21 09:19:19;;;;;;;2.57;1.60;;;19.50;99.90;;;;;;5128243;27;20453;-63
2022/07/21 09:21:56;;;;;;;2.00;1.83;;;19.40;99.90;;;;;;5120402;27;20495;-63
2022/07/21 09:24:29;;;;;;;3.97;2.33;;;19.40;99.90;;;;;;5122159;27;20476;-63
2022/07/21 09:27:02;;;;;;;2.90;1.83;;;19.30;99.90;;;;;;5123721;27;20468;-63
2022/07/21 09:29:45;;;;;;;2.13;1.93;;;19.30;99.90;;;;;;5124822;27;20453;-63
2022/07/21 09:32:28;;;;;;;2.43;2.23;;;19.40;99.90;;;;;;5127464;27;20428;-63
2022/07/21 09:35:02;;;;;;;2.53;1.67;;;19.30;99.90;;;;;;5124738;27;20488;-63
2022/07/21 09:37:39;;;;;;;2.80;2.47;;;19.30;99.90;;;;;;5123806;27;20439;-63
2022/07/21 09:40:13;;;;;;;1.90;1.80;;;19.20;99.90;;;;;;5125520;27;20451;-63
2022/07/21 09:42:45;;;;;;;2.10;1.90;;;19.20;99.90;;;;;;5127160;27;20488;-63
2022/07/21 09:45:20;;;;;;;2.30;2.10;;;19.00;99.90;;;;;;5124103;27;21045;-63
2022/07/21 09:47:52;;;;;;;2.60;2.27;;;19.00;99.90;;;;;;5125229;27;20468;-62
2022/07/21 09:50:24;;;;;;;2.33;2.10;;;19.00;99.90;;;;;;5128986;27;20446;-62
2022/07/21 09:52:59;;;;;;;2.40;2.20;;;19.00;99.90;;;;;;5129994;27;20451;-63
2022/07/21 09:55:31;;;;;;;1.90;1.80;;;19.00;99.90;;;;;;5130195;27;20453;-63
2022/07/21 09:58:03;;;;;;;2.10;2.00;;;19.00;99.90;;;;;;5135765;27;20446;-62
2022/07/21 10:00:35;;;;;;;2.00;1.90;;;18.90;99.90;;;;;;5139552;27;20464;-62
2022/07/21 10:03:07;;;;;;;2.23;2.10;;;18.90;99.90;;;;;;5158172;27;20503;-63
2022/07/21 10:05:39;;;;;;;3.30;2.10;;;18.80;99.90;;;;;;5130602;27;20428;-63
2022/07/21 10:08:10;;;;;;;3.43;2.43;;;18.80;99.90;;;;;;5141507;27;20426;-64
2022/07/21 10:10:41;;;;;;;2.37;1.80;;;18.70;99.90;;;;;;5131219;27;20481;-62
2022/07/21 10:13:32;;;;;;;2.17;2.00;;;18.70;99.90;;;;;;5151654;27;20480;-62
2022/07/21 10:16:03;;;;;;;2.63;2.00;;;18.70;99.90;;;;;;5142214;27;20782;-62
2022/07/21 10:18:40;;;;;;;2.33;1.60;;;18.70;99.90;;;;;;5154356;27;20442;-63
2022/07/21 10:21:27;;;;;;;2.30;1.73;;;18.70;99.90;;;;;;5147013;27;20815;-63
2022/07/21 10:23:58;;;;;;;1.80;1.70;;;18.60;99.90;;;;;;5141119;27;20436;-63
2022/07/21 10:26:29;;;;;;;4.20;2.30;;;18.50;99.90;;;;;;5140420;27;20444;-63
2022/07/21 10:29:00;;;;;;;2.90;1.80;;;18.50;99.90;;;;;;5127713;27;20453;-62
2022/07/21 10:31:31;;;;;;;1.90;1.70;;;18.50;99.90;;;;;;5129888;27;20440;-62
2022/07/21 10:34:04;;;;;;;2.20;2.10;;;18.40;99.90;;;;;;5124340;27;20440;-63
2022/07/21 10:36:52;;;;;;;2.60;1.83;;;18.40;99.90;;;;;;5130656;27;20755;-63
2022/07/21 10:39:26;;;;;;;2.63;2.10;;;18.40;99.90;;;;;;5127136;27;20452;-63
2022/07/21 10:42:01;;;;;;;2.20;1.90;;;18.30;99.90;;;;;;5127133;27;20456;-62
2022/07/21 10:44:44;;;;;;;2.80;1.97;;;18.30;99.90;;;;;;5127323;27;20439;-62
2022/07/21 10:47:18;;;;;;;1.77;1.40;;;18.30;99.90;;;;;;5127277;27;20444;-63
2022/07/21 10:49:53;;;;;;;2.40;1.67;;;18.20;99.90;;;;;;5128862;27;20474;-63
2022/07/21 10:53:01;;;;;;;4.53;1.60;;;18.10;99.90;;;;;;5125318;27;20506;-62
2022/07/21 10:55:33;;;;;;;3.80;2.13;;;18.00;99.90;;;;;;5124078;27;20440;-62
2022/07/21 10:58:26;;;;;;;1.70;1.60;;;18.00;99.90;;;;;;5125463;27;20420;-62
2022/07/21 11:00:58;;;;;;;2.40;1.90;;;18.00;99.90;;;;;;5128448;27;20457;-62
2022/07/21 11:03:39;;;;;;;1.80;1.40;;;18.00;99.90;;;;;;5124601;27;20512;-63
2022/07/21 11:06:23;;;;;;;2.50;1.80;;;17.90;99.90;;;;;;5137138;27;20433;-63
2022/07/21 11:09:14;;;;;;;2.20;1.80;;;17.90;99.90;;;;;;5128824;27;20515;-63
2022/07/21 11:12:00;;;;;;;2.23;1.67;;;17.90;99.90;;;;;;5143249;27;20434;-63
2022/07/21 11:14:41;;;;;;;2.40;2.13;;;17.90;99.90;;;;;;5147935;27;20432;-62
2022/07/21 11:17:26;;;;;;;2.30;1.87;;;17.80;99.90;;;;;;5136211;27;20431;-62
2022/07/21 11:19:57;;;;;;;2.77;2.00;;;17.70;99.90;;;;;;5133203;27;20461;-63
2022/07/21 11:22:30;;;;;;;1.97;1.80;;;17.70;99.90;;;;;;5144470;27;20542;-62
2022/07/21 11:25:03;;;;;;;2.10;1.90;;;17.70;99.90;;;;;;5124732;27;20463;-62
2022/07/21 11:27:35;;;;;;;2.23;2.03;;;17.70;99.90;;;;;;5125168;27;20439;-63
2022/07/21 11:30:08;;;;;;;4.00;1.83;;;17.60;99.90;;;;;;5134627;27;20523;-62
2022/07/21 11:32:39;;;;;;;2.77;2.20;;;17.60;99.90;;;;;;5151895;27;20513;-63
2022/07/21 11:35:10;;;;;;;2.93;2.17;;;17.50;99.90;;;;;;5137946;27;20458;-63
2022/07/21 11:37:44;;;;;;;3.90;2.40;;;17.50;99.90;;;;;;5145330;27;20470;-65
2022/07/21 11:40:17;;;;;;;2.27;2.07;;;17.40;99.90;;;;;;5140922;27;20486;-63
2022/07/21 11:42:53;;;;;;;2.47;2.27;;;17.40;99.90;;;;;;5138194;27;20496;-63
2022/07/21 11:45:28;;;;;;;2.60;2.40;;;17.30;99.90;;;;;;5134887;27;20452;-62
2022/07/21 11:47:58;;;;;;;2.50;2.23;;;17.30;99.90;;;;;;5136262;27;20461;-63
2022/07/21 11:50:30;;;;;;;2.60;2.40;;;17.20;99.90;;;;;;5149590;27;20430;-63
2022/07/21 11:53:03;;;;;;;2.30;2.00;;;17.20;99.90;;;;;;5147775;27;20471;-63
2022/07/21 11:55:36;;;;;;;2.60;2.27;;;17.20;99.90;;;;;;5130719;27;20509;-63
2022/07/21 11:58:16;;;;;;;2.50;2.30;;;17.30;99.90;;;;;;5156865;27;20436;-63
2022/07/21 12:00:47;;;;;;;2.13;1.93;;;17.30;99.90;;;;;;5124450;27;20440;-63
2022/07/21 12:03:17;;;;;;;2.30;1.77;;;17.10;99.90;;;;;;5139337;27;20512;-63
2022/07/21 12:05:48;;;;;;;2.57;2.37;;;17.10;99.90;;;;;;5139307;27;20445;-63
2022/07/21 12:08:21;;;;;;;2.20;2.00;;;17.00;99.90;;;;;;5137629;27;20496;-63
2022/07/21 12:11:07;;;;;;;2.17;1.97;;;17.00;99.90;;;;;;5142760;27;20512;-63
2022/07/21 12:13:57;;;;;;;3.50;3.20;;;17.00;99.90;;;;;;5143455;27;20471;-63
2022/07/21 12:16:28;;;;;;;3.10;2.50;;;17.00;99.90;;;;;;5134440;27;20568;-63
2022/07/21 12:19:12;;;;;;;2.30;2.10;;;17.00;99.90;;;;;;5131573;27;20452;-63
2022/07/21 12:21:47;;;;;;;3.43;2.27;;;16.90;99.90;;;;;;5136475;27;20539;-63
2022/07/21 12:24:20;;;;;;;2.60;2.40;;;16.90;99.90;;;;;;5121961;27;20515;-63
2022/07/21 12:26:52;;;;;;;5.10;2.00;;;16.90;99.90;;;;;;5124774;27;20468;-63
2022/07/21 12:29:29;;;;;;;4.33;2.97;;;16.90;99.90;;;;;;5126640;27;20441;-63
2022/07/21 12:32:00;;;;;;;3.20;2.27;;;16.90;99.90;;;;;;5127821;27;20450;-63
2022/07/21 12:34:31;;;;;;;4.83;3.17;;;16.90;99.90;;;;;;5131556;27;20506;-63
2022/07/21 12:37:02;;;;;;;2.73;2.30;;;16.80;99.90;;;;;;5127934;27;20453;-63
2022/07/21 12:40:07;;;;;;;3.00;2.70;;;16.80;99.90;;;;;;5126938;27;20445;-63
2022/07/21 12:42:38;;;;;;;2.80;2.60;;;16.70;99.90;;;;;;5124564;27;20462;-63
2022/07/21 12:45:16;;;;;;;2.87;2.30;;;16.70;99.90;;;;;;5124055;27;20472;-63
2022/07/21 12:48:08;;;;;;;3.00;2.73;;;16.80;99.90;;;;;;5125662;27;20472;-63
2022/07/21 12:50:40;;;;;;;2.53;2.33;;;16.80;99.90;;;;;;5125171;27;20526;-63
2022/07/21 12:53:11;;;;;;;4.07;2.83;;;16.80;99.90;;;;;;5127772;27;20461;-63
2022/07/21 12:55:44;;;;;;;4.00;2.90;;;16.70;99.90;;;;;;5124829;27;20524;-63
2022/07/21 12:58:15;;;;;;;3.20;2.77;;;16.70;99.90;;;;;;5129356;27;20428;-63
2022/07/21 13:00:45;;;;;;;2.60;2.40;;;16.60;99.90;;;;;;5147313;27;20445;-63
2022/07/21 13:03:16;;;;;;;2.57;2.30;;;16.70;99.90;;;;;;5151112;27;20569;-63
2022/07/21 13:05:47;;;;;;;3.47;3.10;;;16.70;99.90;;;;;;5146349;27;20432;-63
2022/07/21 13:08:18;;;;;;;3.57;2.73;;;16.70;99.90;;;;;;5149103;27;20458;-63
2022/07/21 13:10:50;;;;;;;3.40;2.60;;;16.70;99.90;;;;;;5134453;27;20430;-63
2022/07/21 13:13:22;;;;;;;3.63;2.87;;;16.60;99.90;;;;;;5123050;28;20433;-63
2022/07/21 13:15:54;;;;;;;4.53;3.40;;;16.60;99.90;;;;;;5140935;27;20415;-63
2022/07/21 13:18:24;;;;;;;6.23;2.63;;;16.60;99.90;;;;;;5122813;28;20420;-63
2022/07/21 13:20:55;;;;;;;3.70;3.30;;;16.60;99.90;;;;;;5129432;27;20457;-63
2022/07/21 13:23:28;;;;;;;3.90;3.50;;;16.60;99.90;;;;;;5121284;28;20548;-63